sensor_id;sensor_type;location;lat;lon;timestamp;P1;durP1;ratioP1;P2;durP2;ratioP2
13238;SDS011;6686;51.292;4.166;2023-06-22T00:02:25;5.57;;;4.03;;
13238;SDS011;6686;51.292;4.166;2023-06-22T00:05:11;5.70;;;4.37;;
13238;SDS011;6686;51.292;4.166;2023-06-22T00:07:57;6.33;;;4.80;;
13238;SDS011;6686;51.292;4.166;2023-06-22T00:10:43;5.57;;;4.95;;
13238;SDS011;6686;51.292;4.166;2023-06-22T00:13:29;4.53;;;4.13;;
13238;SDS011;6686;51.292;4.166;2023-06-22T00:16:15;5.17;;;4.10;;
13238;SDS011;6686;51.292;4.166;2023-06-22T00:19:01;5.07;;;3.83;;
13238;SDS011;6686;51.292;4.166;2023-06-22T00:21:47;4.90;;;4.40;;
13238;SDS011;6686;51.292;4.166;2023-06-22T00:24:33;5.70;;;4.70;;
13238;SDS011;6686;51.292;4.166;2023-06-22T00:27:19;4.90;;;4.50;;
13238;SDS011;6686;51.292;4.166;2023-06-22T00:30:05;5.70;;;4.23;;
13238;SDS011;6686;51.292;4.166;2023-06-22T00:32:52;4.80;;;4.30;;
13238;SDS011;6686;51.292;4.166;2023-06-22T00:35:38;5.10;;;3.80;;
13238;SDS011;6686;51.292;4.166;2023-06-22T00:38:24;6.10;;;4.50;;
13238;SDS011;6686;51.292;4.166;2023-06-22T00:41:10;4.90;;;4.43;;
13238;SDS011;6686;51.292;4.166;2023-06-22T00:43:56;6.00;;;5.00;;
13238;SDS011;6686;51.292;4.166;2023-06-22T00:46:42;4.80;;;4.30;;
13238;SDS011;6686;51.292;4.166;2023-06-22T00:49:28;4.63;;;4.23;;
13238;SDS011;6686;51.292;4.166;2023-06-22T00:52:14;5.73;;;4.43;;
13238;SDS011;6686;51.292;4.166;2023-06-22T00:55:01;5.77;;;4.50;;
13238;SDS011;6686;51.292;4.166;2023-06-22T00:57:46;5.80;;;4.40;;
13238;SDS011;6686;51.292;4.166;2023-06-22T01:00:32;5.62;;;5.12;;
13238;SDS011;6686;51.292;4.166;2023-06-22T01:03:17;5.27;;;4.33;;
13238;SDS011;6686;51.292;4.166;2023-06-22T01:06:15;5.40;;;4.90;;
13238;SDS011;6686;51.292;4.166;2023-06-22T01:09:06;5.23;;;4.73;;
13238;SDS011;6686;51.292;4.166;2023-06-22T01:11:52;6.60;;;5.25;;
13238;SDS011;6686;51.292;4.166;2023-06-22T01:14:45;5.27;;;4.80;;
13238;SDS011;6686;51.292;4.166;2023-06-22T01:17:29;7.27;;;4.97;;
13238;SDS011;6686;51.292;4.166;2023-06-22T01:20:15;6.63;;;5.07;;
13238;SDS011;6686;51.292;4.166;2023-06-22T01:23:10;7.17;;;5.07;;
13238;SDS011;6686;51.292;4.166;2023-06-22T01:26:17;5.37;;;4.60;;
13238;SDS011;6686;51.292;4.166;2023-06-22T01:29:00;6.67;;;5.03;;
13238;SDS011;6686;51.292;4.166;2023-06-22T01:31:46;7.53;;;5.37;;
13238;SDS011;6686;51.292;4.166;2023-06-22T01:34:32;7.30;;;5.37;;
13238;SDS011;6686;51.292;4.166;2023-06-22T01:37:18;6.00;;;5.40;;
13238;SDS011;6686;51.292;4.166;2023-06-22T01:40:05;5.63;;;5.03;;
13238;SDS011;6686;51.292;4.166;2023-06-22T01:42:51;5.70;;;5.10;;
13238;SDS011;6686;51.292;4.166;2023-06-22T01:45:37;7.03;;;5.13;;
13238;SDS011;6686;51.292;4.166;2023-06-22T01:48:24;6.70;;;5.45;;
13238;SDS011;6686;51.292;4.166;2023-06-22T01:51:09;5.77;;;5.27;;
13238;SDS011;6686;51.292;4.166;2023-06-22T01:53:55;7.13;;;5.17;;
13238;SDS011;6686;51.292;4.166;2023-06-22T01:56:42;6.07;;;5.40;;
13238;SDS011;6686;51.292;4.166;2023-06-22T02:02:45;5.73;;;4.30;;
13238;SDS011;6686;51.292;4.166;2023-06-22T02:05:42;7.23;;;4.30;;
13238;SDS011;6686;51.292;4.166;2023-06-22T02:08:28;6.17;;;4.67;;
13238;SDS011;6686;51.292;4.166;2023-06-22T02:11:11;7.73;;;5.30;;
13238;SDS011;6686;51.292;4.166;2023-06-22T02:13:57;4.60;;;4.20;;
13238;SDS011;6686;51.292;4.166;2023-06-22T02:16:44;8.47;;;5.03;;
13238;SDS011;6686;51.292;4.166;2023-06-22T02:19:30;9.10;;;5.20;;
13238;SDS011;6686;51.292;4.166;2023-06-22T02:22:15;6.83;;;4.60;;
13238;SDS011;6686;51.292;4.166;2023-06-22T02:25:01;5.83;;;4.50;;
13238;SDS011;6686;51.292;4.166;2023-06-22T02:27:47;6.80;;;5.07;;
13238;SDS011;6686;51.292;4.166;2023-06-22T02:30:34;5.63;;;4.90;;
13238;SDS011;6686;51.292;4.166;2023-06-22T02:33:20;7.33;;;5.23;;
13238;SDS011;6686;51.292;4.166;2023-06-22T02:36:06;7.50;;;5.10;;
13238;SDS011;6686;51.292;4.166;2023-06-22T02:38:53;7.53;;;5.70;;
13238;SDS011;6686;51.292;4.166;2023-06-22T02:41:38;7.37;;;5.83;;
13238;SDS011;6686;51.292;4.166;2023-06-22T02:44:25;8.30;;;6.07;;
13238;SDS011;6686;51.292;4.166;2023-06-22T02:47:10;6.03;;;5.43;;
13238;SDS011;6686;51.292;4.166;2023-06-22T02:49:57;6.77;;;6.07;;
13238;SDS011;6686;51.292;4.166;2023-06-22T02:52:43;8.20;;;5.97;;
13238;SDS011;6686;51.292;4.166;2023-06-22T02:55:29;9.07;;;6.70;;
13238;SDS011;6686;51.292;4.166;2023-06-22T02:58:14;8.90;;;6.97;;
13238;SDS011;6686;51.292;4.166;2023-06-22T03:01:00;8.80;;;6.13;;
13238;SDS011;6686;51.292;4.166;2023-06-22T03:03:46;8.10;;;6.57;;
13238;SDS011;6686;51.292;4.166;2023-06-22T03:06:32;8.87;;;6.67;;
13238;SDS011;6686;51.292;4.166;2023-06-22T03:09:18;9.67;;;6.57;;
13238;SDS011;6686;51.292;4.166;2023-06-22T03:12:04;9.33;;;7.40;;
13238;SDS011;6686;51.292;4.166;2023-06-22T03:14:49;12.00;;;6.97;;
13238;SDS011;6686;51.292;4.166;2023-06-22T03:17:36;9.23;;;7.43;;
13238;SDS011;6686;51.292;4.166;2023-06-22T03:20:21;9.13;;;6.83;;
13238;SDS011;6686;51.292;4.166;2023-06-22T03:23:07;11.03;;;7.67;;
13238;SDS011;6686;51.292;4.166;2023-06-22T03:25:53;8.47;;;6.97;;
13238;SDS011;6686;51.292;4.166;2023-06-22T03:28:39;9.93;;;7.07;;
13238;SDS011;6686;51.292;4.166;2023-06-22T03:31:25;10.65;;;8.77;;
13238;SDS011;6686;51.292;4.166;2023-06-22T03:34:11;12.53;;;8.13;;
13238;SDS011;6686;51.292;4.166;2023-06-22T03:36:57;9.40;;;7.80;;
13238;SDS011;6686;51.292;4.166;2023-06-22T03:39:43;9.50;;;7.80;;
13238;SDS011;6686;51.292;4.166;2023-06-22T03:42:29;9.98;;;8.00;;
13238;SDS011;6686;51.292;4.166;2023-06-22T03:45:14;9.97;;;8.30;;
13238;SDS011;6686;51.292;4.166;2023-06-22T03:48:01;9.47;;;7.70;;
13238;SDS011;6686;51.292;4.166;2023-06-22T03:50:47;8.47;;;7.33;;
13238;SDS011;6686;51.292;4.166;2023-06-22T03:53:32;9.83;;;8.07;;
13238;SDS011;6686;51.292;4.166;2023-06-22T03:56:18;9.83;;;7.53;;
13238;SDS011;6686;51.292;4.166;2023-06-22T03:59:04;11.87;;;8.37;;
13238;SDS011;6686;51.292;4.166;2023-06-22T04:01:50;12.53;;;8.93;;
13238;SDS011;6686;51.292;4.166;2023-06-22T04:04:36;10.40;;;8.83;;
13238;SDS011;6686;51.292;4.166;2023-06-22T04:07:22;9.60;;;8.53;;
13238;SDS011;6686;51.292;4.166;2023-06-22T04:10:09;12.77;;;8.03;;
13238;SDS011;6686;51.292;4.166;2023-06-22T04:12:55;10.53;;;8.23;;
13238;SDS011;6686;51.292;4.166;2023-06-22T04:15:41;13.40;;;8.30;;
13238;SDS011;6686;51.292;4.166;2023-06-22T04:18:27;12.77;;;8.40;;
13238;SDS011;6686;51.292;4.166;2023-06-22T04:21:13;13.63;;;8.87;;
13238;SDS011;6686;51.292;4.166;2023-06-22T04:23:59;11.23;;;8.90;;
13238;SDS011;6686;51.292;4.166;2023-06-22T04:26:45;11.33;;;8.43;;
13238;SDS011;6686;51.292;4.166;2023-06-22T04:29:31;13.27;;;9.27;;
13238;SDS011;6686;51.292;4.166;2023-06-22T04:32:17;11.77;;;9.03;;
13238;SDS011;6686;51.292;4.166;2023-06-22T04:35:03;14.77;;;8.60;;
13238;SDS011;6686;51.292;4.166;2023-06-22T04:37:49;13.13;;;9.17;;
13238;SDS011;6686;51.292;4.166;2023-06-22T04:40:35;10.73;;;8.50;;
13238;SDS011;6686;51.292;4.166;2023-06-22T04:43:21;11.67;;;8.30;;
13238;SDS011;6686;51.292;4.166;2023-06-22T04:46:07;11.37;;;9.23;;
13238;SDS011;6686;51.292;4.166;2023-06-22T04:48:53;13.43;;;11.07;;
13238;SDS011;6686;51.292;4.166;2023-06-22T04:51:40;13.47;;;10.23;;
13238;SDS011;6686;51.292;4.166;2023-06-22T04:54:25;23.53;;;11.53;;
13238;SDS011;6686;51.292;4.166;2023-06-22T04:57:11;13.67;;;9.40;;
13238;SDS011;6686;51.292;4.166;2023-06-22T05:00:01;13.93;;;10.43;;
13238;SDS011;6686;51.292;4.166;2023-06-22T05:02:47;14.50;;;11.00;;
13238;SDS011;6686;51.292;4.166;2023-06-22T05:05:33;13.83;;;10.20;;
13238;SDS011;6686;51.292;4.166;2023-06-22T05:08:19;18.00;;;11.93;;
13238;SDS011;6686;51.292;4.166;2023-06-22T05:11:05;12.87;;;10.90;;
13238;SDS011;6686;51.292;4.166;2023-06-22T05:13:50;14.20;;;10.90;;
13238;SDS011;6686;51.292;4.166;2023-06-22T05:16:36;13.60;;;10.83;;
13238;SDS011;6686;51.292;4.166;2023-06-22T05:19:22;21.37;;;11.70;;
13238;SDS011;6686;51.292;4.166;2023-06-22T05:22:08;15.23;;;11.80;;
13238;SDS011;6686;51.292;4.166;2023-06-22T05:24:54;13.70;;;10.23;;
13238;SDS011;6686;51.292;4.166;2023-06-22T05:27:40;16.58;;;13.40;;
13238;SDS011;6686;51.292;4.166;2023-06-22T05:30:26;13.80;;;11.63;;
13238;SDS011;6686;51.292;4.166;2023-06-22T05:33:12;17.03;;;12.60;;
13238;SDS011;6686;51.292;4.166;2023-06-22T05:35:59;13.30;;;11.00;;
13238;SDS011;6686;51.292;4.166;2023-06-22T05:38:45;14.57;;;11.80;;
13238;SDS011;6686;51.292;4.166;2023-06-22T05:41:30;13.67;;;11.40;;
13238;SDS011;6686;51.292;4.166;2023-06-22T05:44:16;14.53;;;13.03;;
13238;SDS011;6686;51.292;4.166;2023-06-22T05:47:02;15.32;;;13.73;;
13238;SDS011;6686;51.292;4.166;2023-06-22T05:49:48;16.73;;;12.60;;
13238;SDS011;6686;51.292;4.166;2023-06-22T05:52:34;14.73;;;12.47;;
13238;SDS011;6686;51.292;4.166;2023-06-22T05:55:23;14.90;;;13.32;;
13238;SDS011;6686;51.292;4.166;2023-06-22T05:58:09;15.90;;;13.13;;
13238;SDS011;6686;51.292;4.166;2023-06-22T06:00:55;15.00;;;13.37;;
13238;SDS011;6686;51.292;4.166;2023-06-22T06:03:41;15.20;;;12.33;;
13238;SDS011;6686;51.292;4.166;2023-06-22T06:06:27;15.63;;;13.00;;
13238;SDS011;6686;51.292;4.166;2023-06-22T06:09:14;16.93;;;13.53;;
13238;SDS011;6686;51.292;4.166;2023-06-22T06:11:59;18.83;;;14.17;;
13238;SDS011;6686;51.292;4.166;2023-06-22T06:14:45;14.60;;;12.90;;
13238;SDS011;6686;51.292;4.166;2023-06-22T06:17:31;17.50;;;13.30;;
13238;SDS011;6686;51.292;4.166;2023-06-22T06:20:19;15.57;;;13.40;;
13238;SDS011;6686;51.292;4.166;2023-06-22T06:23:04;15.77;;;13.97;;
13238;SDS011;6686;51.292;4.166;2023-06-22T06:25:50;17.67;;;15.95;;
13238;SDS011;6686;51.292;4.166;2023-06-22T06:28:35;16.27;;;14.57;;
13238;SDS011;6686;51.292;4.166;2023-06-22T06:31:22;17.40;;;13.87;;
13238;SDS011;6686;51.292;4.166;2023-06-22T06:34:07;17.95;;;16.12;;
13238;SDS011;6686;51.292;4.166;2023-06-22T06:36:53;16.00;;;14.10;;
13238;SDS011;6686;51.292;4.166;2023-06-22T06:39:39;18.63;;;14.57;;
13238;SDS011;6686;51.292;4.166;2023-06-22T06:42:25;17.07;;;14.30;;
13238;SDS011;6686;51.292;4.166;2023-06-22T06:45:21;15.90;;;13.57;;
13238;SDS011;6686;51.292;4.166;2023-06-22T06:48:09;15.23;;;13.47;;
13238;SDS011;6686;51.292;4.166;2023-06-22T06:50:55;15.00;;;13.50;;
13238;SDS011;6686;51.292;4.166;2023-06-22T06:53:41;14.83;;;13.23;;
13238;SDS011;6686;51.292;4.166;2023-06-22T06:56:27;15.73;;;13.47;;
13238;SDS011;6686;51.292;4.166;2023-06-22T06:59:13;16.33;;;13.33;;
13238;SDS011;6686;51.292;4.166;2023-06-22T07:01:58;14.07;;;12.07;;
13238;SDS011;6686;51.292;4.166;2023-06-22T07:04:44;12.67;;;11.37;;
13238;SDS011;6686;51.292;4.166;2023-06-22T07:07:31;13.53;;;11.37;;
13238;SDS011;6686;51.292;4.166;2023-06-22T07:10:17;13.73;;;11.63;;
13238;SDS011;6686;51.292;4.166;2023-06-22T07:13:03;14.67;;;11.87;;
13238;SDS011;6686;51.292;4.166;2023-06-22T07:15:49;12.80;;;11.50;;
13238;SDS011;6686;51.292;4.166;2023-06-22T07:18:35;12.63;;;11.37;;
13238;SDS011;6686;51.292;4.166;2023-06-22T07:21:21;14.47;;;11.93;;
13238;SDS011;6686;51.292;4.166;2023-06-22T07:24:07;14.17;;;12.63;;
13238;SDS011;6686;51.292;4.166;2023-06-22T07:26:53;13.70;;;12.20;;
13238;SDS011;6686;51.292;4.166;2023-06-22T07:29:39;16.83;;;11.80;;
13238;SDS011;6686;51.292;4.166;2023-06-22T07:32:26;13.45;;;12.05;;
13238;SDS011;6686;51.292;4.166;2023-06-22T07:35:12;12.95;;;11.63;;
13238;SDS011;6686;51.292;4.166;2023-06-22T07:37:58;13.32;;;10.18;;
13238;SDS011;6686;51.292;4.166;2023-06-22T07:40:44;12.25;;;10.63;;
13238;SDS011;6686;51.292;4.166;2023-06-22T07:43:30;11.68;;;10.52;;
13238;SDS011;6686;51.292;4.166;2023-06-22T07:46:16;12.73;;;10.57;;
13238;SDS011;6686;51.292;4.166;2023-06-22T07:49:02;11.65;;;10.50;;
13238;SDS011;6686;51.292;4.166;2023-06-22T07:51:48;13.75;;;11.75;;
13238;SDS011;6686;51.292;4.166;2023-06-22T07:54:34;13.37;;;9.33;;
13238;SDS011;6686;51.292;4.166;2023-06-22T07:57:20;10.77;;;9.67;;
13238;SDS011;6686;51.292;4.166;2023-06-22T08:00:07;11.77;;;9.25;;
13238;SDS011;6686;51.292;4.166;2023-06-22T08:02:55;9.97;;;8.97;;
13238;SDS011;6686;51.292;4.166;2023-06-22T08:05:41;13.85;;;9.35;;
13238;SDS011;6686;51.292;4.166;2023-06-22T08:08:27;11.33;;;8.83;;
13238;SDS011;6686;51.292;4.166;2023-06-22T08:11:13;10.73;;;9.00;;
13238;SDS011;6686;51.292;4.166;2023-06-22T08:13:59;11.40;;;9.23;;
13238;SDS011;6686;51.292;4.166;2023-06-22T08:16:45;9.17;;;8.17;;
13238;SDS011;6686;51.292;4.166;2023-06-22T08:19:31;9.00;;;7.87;;
13238;SDS011;6686;51.292;4.166;2023-06-22T08:22:17;11.10;;;7.67;;
13238;SDS011;6686;51.292;4.166;2023-06-22T08:25:03;9.60;;;8.00;;
13238;SDS011;6686;51.292;4.166;2023-06-22T08:27:49;8.33;;;7.53;;
13238;SDS011;6686;51.292;4.166;2023-06-22T08:30:35;9.43;;;7.43;;
13238;SDS011;6686;51.292;4.166;2023-06-22T08:33:21;10.23;;;8.80;;
13238;SDS011;6686;51.292;4.166;2023-06-22T08:36:07;8.57;;;7.70;;
13238;SDS011;6686;51.292;4.166;2023-06-22T08:38:53;11.83;;;8.17;;
13238;SDS011;6686;51.292;4.166;2023-06-22T08:41:39;11.53;;;8.33;;
13238;SDS011;6686;51.292;4.166;2023-06-22T08:44:25;9.00;;;7.97;;
13238;SDS011;6686;51.292;4.166;2023-06-22T08:47:11;8.80;;;8.00;;
13238;SDS011;6686;51.292;4.166;2023-06-22T08:49:57;9.77;;;8.73;;
13238;SDS011;6686;51.292;4.166;2023-06-22T08:52:43;8.73;;;7.83;;
13238;SDS011;6686;51.292;4.166;2023-06-22T08:55:29;9.17;;;8.27;;
13238;SDS011;6686;51.292;4.166;2023-06-22T08:58:14;9.40;;;8.03;;
13238;SDS011;6686;51.292;4.166;2023-06-22T09:01:00;11.33;;;8.70;;
13238;SDS011;6686;51.292;4.166;2023-06-22T09:03:46;11.80;;;9.93;;
13238;SDS011;6686;51.292;4.166;2023-06-22T09:06:35;9.77;;;8.77;;
13238;SDS011;6686;51.292;4.166;2023-06-22T09:09:21;9.47;;;8.47;;
13238;SDS011;6686;51.292;4.166;2023-06-22T09:12:07;10.73;;;8.00;;
13238;SDS011;6686;51.292;4.166;2023-06-22T09:14:53;9.67;;;7.63;;
13238;SDS011;6686;51.292;4.166;2023-06-22T09:17:40;7.47;;;6.67;;
13238;SDS011;6686;51.292;4.166;2023-06-22T09:20:25;8.87;;;6.10;;
13238;SDS011;6686;51.292;4.166;2023-06-22T09:23:13;8.00;;;6.00;;
13238;SDS011;6686;51.292;4.166;2023-06-22T09:25:59;7.77;;;6.93;;
13238;SDS011;6686;51.292;4.166;2023-06-22T09:28:45;7.30;;;6.37;;
13238;SDS011;6686;51.292;4.166;2023-06-22T09:31:31;8.67;;;6.77;;
13238;SDS011;6686;51.292;4.166;2023-06-22T09:34:17;8.03;;;6.30;;
13238;SDS011;6686;51.292;4.166;2023-06-22T09:37:03;9.03;;;6.90;;
13238;SDS011;6686;51.292;4.166;2023-06-22T09:39:49;10.50;;;7.23;;
13238;SDS011;6686;51.292;4.166;2023-06-22T09:42:35;8.77;;;6.73;;
13238;SDS011;6686;51.292;4.166;2023-06-22T09:45:21;12.40;;;6.97;;
13238;SDS011;6686;51.292;4.166;2023-06-22T09:48:08;7.97;;;6.20;;
13238;SDS011;6686;51.292;4.166;2023-06-22T09:50:54;10.13;;;5.77;;
13238;SDS011;6686;51.292;4.166;2023-06-22T09:53:40;7.10;;;6.13;;
13238;SDS011;6686;51.292;4.166;2023-06-22T09:56:26;7.93;;;6.00;;
13238;SDS011;6686;51.292;4.166;2023-06-22T09:59:11;7.20;;;5.87;;
13238;SDS011;6686;51.292;4.166;2023-06-22T10:01:58;7.87;;;6.60;;
13238;SDS011;6686;51.292;4.166;2023-06-22T10:04:44;6.53;;;5.83;;
13238;SDS011;6686;51.292;4.166;2023-06-22T10:07:30;7.13;;;5.33;;
13238;SDS011;6686;51.292;4.166;2023-06-22T10:10:16;6.23;;;4.97;;
13238;SDS011;6686;51.292;4.166;2023-06-22T10:13:08;5.90;;;4.43;;
13238;SDS011;6686;51.292;4.166;2023-06-22T10:15:53;5.50;;;4.90;;
13238;SDS011;6686;51.292;4.166;2023-06-22T10:18:39;6.33;;;4.73;;
13238;SDS011;6686;51.292;4.166;2023-06-22T10:21:26;5.97;;;4.73;;
13238;SDS011;6686;51.292;4.166;2023-06-22T10:24:12;6.33;;;5.40;;
13238;SDS011;6686;51.292;4.166;2023-06-22T10:26:57;5.27;;;4.77;;
13238;SDS011;6686;51.292;4.166;2023-06-22T10:29:44;6.23;;;4.90;;
13238;SDS011;6686;51.292;4.166;2023-06-22T10:32:30;6.60;;;5.60;;
13238;SDS011;6686;51.292;4.166;2023-06-22T10:35:16;5.80;;;5.17;;
13238;SDS011;6686;51.292;4.166;2023-06-22T10:38:03;8.53;;;5.60;;
13238;SDS011;6686;51.292;4.166;2023-06-22T10:40:49;6.67;;;5.93;;
13238;SDS011;6686;51.292;4.166;2023-06-22T10:43:34;6.87;;;6.17;;
13238;SDS011;6686;51.292;4.166;2023-06-22T10:46:21;6.40;;;5.77;;
13238;SDS011;6686;51.292;4.166;2023-06-22T10:49:06;8.37;;;6.40;;
13238;SDS011;6686;51.292;4.166;2023-06-22T10:51:52;6.47;;;4.93;;
13238;SDS011;6686;51.292;4.166;2023-06-22T10:54:38;6.30;;;4.83;;
13238;SDS011;6686;51.292;4.166;2023-06-22T10:57:24;9.83;;;5.83;;
13238;SDS011;6686;51.292;4.166;2023-06-22T11:00:10;5.53;;;4.77;;
13238;SDS011;6686;51.292;4.166;2023-06-22T11:02:56;7.83;;;5.47;;
13238;SDS011;6686;51.292;4.166;2023-06-22T11:05:42;6.12;;;5.47;;
13238;SDS011;6686;51.292;4.166;2023-06-22T11:08:28;8.33;;;5.90;;
13238;SDS011;6686;51.292;4.166;2023-06-22T11:11:14;6.50;;;5.10;;
13238;SDS011;6686;51.292;4.166;2023-06-22T11:13:59;9.50;;;6.23;;
13238;SDS011;6686;51.292;4.166;2023-06-22T11:16:45;9.50;;;6.93;;
13238;SDS011;6686;51.292;4.166;2023-06-22T11:19:34;8.07;;;6.47;;
13238;SDS011;6686;51.292;4.166;2023-06-22T11:22:20;9.45;;;8.52;;
13238;SDS011;6686;51.292;4.166;2023-06-22T11:25:06;8.47;;;7.47;;
13238;SDS011;6686;51.292;4.166;2023-06-22T11:27:52;9.60;;;8.20;;
13238;SDS011;6686;51.292;4.166;2023-06-22T11:30:38;9.73;;;8.70;;
13238;SDS011;6686;51.292;4.166;2023-06-22T11:33:23;8.27;;;7.37;;
13238;SDS011;6686;51.292;4.166;2023-06-22T11:36:10;9.80;;;8.77;;
13238;SDS011;6686;51.292;4.166;2023-06-22T11:38:56;11.10;;;9.37;;
13238;SDS011;6686;51.292;4.166;2023-06-22T11:41:43;12.13;;;8.70;;
13238;SDS011;6686;51.292;4.166;2023-06-22T11:44:28;12.87;;;9.97;;
13238;SDS011;6686;51.292;4.166;2023-06-22T11:47:14;13.43;;;10.83;;
13238;SDS011;6686;51.292;4.166;2023-06-22T11:50:00;12.57;;;10.67;;
13238;SDS011;6686;51.292;4.166;2023-06-22T11:52:50;11.47;;;10.27;;
13238;SDS011;6686;51.292;4.166;2023-06-22T11:55:36;13.95;;;11.90;;
13238;SDS011;6686;51.292;4.166;2023-06-22T11:58:22;13.60;;;12.20;;
13238;SDS011;6686;51.292;4.166;2023-06-22T12:01:08;13.03;;;10.77;;
13238;SDS011;6686;51.292;4.166;2023-06-22T12:03:54;13.63;;;11.07;;
13238;SDS011;6686;51.292;4.166;2023-06-22T12:06:40;13.20;;;11.73;;
13238;SDS011;6686;51.292;4.166;2023-06-22T12:09:25;13.03;;;11.57;;
13238;SDS011;6686;51.292;4.166;2023-06-22T12:12:11;16.93;;;12.87;;
13238;SDS011;6686;51.292;4.166;2023-06-22T12:14:59;14.23;;;12.83;;
13238;SDS011;6686;51.292;4.166;2023-06-22T12:17:45;14.60;;;13.10;;
13238;SDS011;6686;51.292;4.166;2023-06-22T12:20:31;14.20;;;12.70;;
13238;SDS011;6686;51.292;4.166;2023-06-22T12:23:18;15.30;;;13.80;;
13238;SDS011;6686;51.292;4.166;2023-06-22T12:26:07;18.33;;;14.83;;
13238;SDS011;6686;51.292;4.166;2023-06-22T12:28:53;16.23;;;14.63;;
13238;SDS011;6686;51.292;4.166;2023-06-22T12:31:39;19.20;;;17.30;;
13238;SDS011;6686;51.292;4.166;2023-06-22T12:34:34;17.67;;;15.67;;
13238;SDS011;6686;51.292;4.166;2023-06-22T12:37:20;17.60;;;15.70;;
13238;SDS011;6686;51.292;4.166;2023-06-22T12:40:07;16.53;;;14.83;;
13238;SDS011;6686;51.292;4.166;2023-06-22T12:42:53;16.73;;;14.90;;
13238;SDS011;6686;51.292;4.166;2023-06-22T12:45:39;16.33;;;14.40;;
13238;SDS011;6686;51.292;4.166;2023-06-22T12:48:25;16.73;;;14.10;;
13238;SDS011;6686;51.292;4.166;2023-06-22T12:51:11;17.43;;;14.80;;
13238;SDS011;6686;51.292;4.166;2023-06-22T12:53:56;17.43;;;14.43;;
13238;SDS011;6686;51.292;4.166;2023-06-22T12:56:43;16.77;;;15.18;;
13238;SDS011;6686;51.292;4.166;2023-06-22T12:59:32;15.20;;;13.63;;
13238;SDS011;6686;51.292;4.166;2023-06-22T13:02:18;14.87;;;13.37;;
13238;SDS011;6686;51.292;4.166;2023-06-22T13:05:04;15.50;;;13.90;;
13238;SDS011;6686;51.292;4.166;2023-06-22T13:07:52;14.93;;;13.47;;
13238;SDS011;6686;51.292;4.166;2023-06-22T13:10:38;16.37;;;14.53;;
13238;SDS011;6686;51.292;4.166;2023-06-22T13:13:25;16.47;;;14.77;;
13238;SDS011;6686;51.292;4.166;2023-06-22T13:16:11;17.73;;;15.93;;
13238;SDS011;6686;51.292;4.166;2023-06-22T13:18:57;16.77;;;15.27;;
13238;SDS011;6686;51.292;4.166;2023-06-22T13:21:43;17.43;;;15.60;;
13238;SDS011;6686;51.292;4.166;2023-06-22T13:24:28;18.90;;;17.00;;
13238;SDS011;6686;51.292;4.166;2023-06-22T13:27:14;18.93;;;17.07;;
13238;SDS011;6686;51.292;4.166;2023-06-22T13:30:01;17.43;;;15.73;;
13238;SDS011;6686;51.292;4.166;2023-06-22T13:32:47;18.97;;;17.07;;
13238;SDS011;6686;51.292;4.166;2023-06-22T13:35:33;19.20;;;17.30;;
13238;SDS011;6686;51.292;4.166;2023-06-22T13:38:19;20.30;;;18.23;;
13238;SDS011;6686;51.292;4.166;2023-06-22T13:41:05;20.77;;;18.57;;
13238;SDS011;6686;51.292;4.166;2023-06-22T13:43:51;21.13;;;18.90;;
13238;SDS011;6686;51.292;4.166;2023-06-22T13:46:36;20.37;;;18.42;;
13238;SDS011;6686;51.292;4.166;2023-06-22T13:49:22;19.67;;;17.63;;
13238;SDS011;6686;51.292;4.166;2023-06-22T13:52:08;22.42;;;20.20;;
13238;SDS011;6686;51.292;4.166;2023-06-22T13:54:54;20.40;;;18.27;;
13238;SDS011;6686;51.292;4.166;2023-06-22T13:57:40;19.80;;;17.73;;
13238;SDS011;6686;51.292;4.166;2023-06-22T14:00:26;19.37;;;16.70;;
13238;SDS011;6686;51.292;4.166;2023-06-22T14:03:12;18.47;;;16.53;;
13238;SDS011;6686;51.292;4.166;2023-06-22T14:05:58;19.57;;;17.57;;
13238;SDS011;6686;51.292;4.166;2023-06-22T14:08:44;19.47;;;17.33;;
13238;SDS011;6686;51.292;4.166;2023-06-22T14:11:30;22.27;;;19.23;;
13238;SDS011;6686;51.292;4.166;2023-06-22T14:14:16;19.10;;;17.17;;
13238;SDS011;6686;51.292;4.166;2023-06-22T14:17:01;20.37;;;18.43;;
13238;SDS011;6686;51.292;4.166;2023-06-22T14:19:47;23.13;;;20.10;;
13238;SDS011;6686;51.292;4.166;2023-06-22T14:22:33;22.53;;;20.23;;
13238;SDS011;6686;51.292;4.166;2023-06-22T14:25:19;21.87;;;19.13;;
13238;SDS011;6686;51.292;4.166;2023-06-22T14:28:05;22.03;;;19.67;;
13238;SDS011;6686;51.292;4.166;2023-06-22T14:30:51;22.50;;;20.13;;
13238;SDS011;6686;51.292;4.166;2023-06-22T14:33:37;21.97;;;19.60;;
13238;SDS011;6686;51.292;4.166;2023-06-22T14:36:22;22.53;;;20.23;;
13238;SDS011;6686;51.292;4.166;2023-06-22T14:39:09;22.50;;;20.20;;
13238;SDS011;6686;51.292;4.166;2023-06-22T14:41:54;24.17;;;21.67;;
13238;SDS011;6686;51.292;4.166;2023-06-22T14:44:39;25.63;;;22.97;;
13238;SDS011;6686;51.292;4.166;2023-06-22T14:47:25;25.43;;;22.70;;
13238;SDS011;6686;51.292;4.166;2023-06-22T14:50:11;25.37;;;22.77;;
13238;SDS011;6686;51.292;4.166;2023-06-22T14:52:57;29.33;;;25.73;;
13238;SDS011;6686;51.292;4.166;2023-06-22T14:55:43;28.70;;;25.60;;
13238;SDS011;6686;51.292;4.166;2023-06-22T14:58:32;31.10;;;26.00;;
13238;SDS011;6686;51.292;4.166;2023-06-22T15:01:22;27.37;;;24.20;;
13238;SDS011;6686;51.292;4.166;2023-06-22T15:04:08;28.70;;;25.13;;
13238;SDS011;6686;51.292;4.166;2023-06-22T15:06:55;29.10;;;23.50;;
13238;SDS011;6686;51.292;4.166;2023-06-22T15:09:41;28.60;;;25.50;;
13238;SDS011;6686;51.292;4.166;2023-06-22T15:12:27;27.77;;;24.80;;
13238;SDS011;6686;51.292;4.166;2023-06-22T15:15:12;27.57;;;24.50;;
13238;SDS011;6686;51.292;4.166;2023-06-22T15:17:58;26.77;;;24.00;;
13238;SDS011;6686;51.292;4.166;2023-06-22T15:20:44;27.57;;;24.40;;
13238;SDS011;6686;51.292;4.166;2023-06-22T15:23:31;27.77;;;23.50;;
13238;SDS011;6686;51.292;4.166;2023-06-22T15:26:16;24.70;;;22.07;;
13238;SDS011;6686;51.292;4.166;2023-06-22T15:29:02;23.80;;;20.03;;
13238;SDS011;6686;51.292;4.166;2023-06-22T15:31:48;23.83;;;21.27;;
13238;SDS011;6686;51.292;4.166;2023-06-22T15:34:35;25.80;;;23.30;;
13238;SDS011;6686;51.292;4.166;2023-06-22T15:37:21;22.30;;;19.93;;
13238;SDS011;6686;51.292;4.166;2023-06-22T15:40:07;21.53;;;19.20;;
13238;SDS011;6686;51.292;4.166;2023-06-22T15:42:53;21.57;;;19.37;;
13238;SDS011;6686;51.292;4.166;2023-06-22T15:45:39;24.13;;;19.57;;
13238;SDS011;6686;51.292;4.166;2023-06-22T15:48:25;24.10;;;20.10;;
13238;SDS011;6686;51.292;4.166;2023-06-22T15:51:11;22.10;;;19.90;;
13238;SDS011;6686;51.292;4.166;2023-06-22T15:53:57;22.00;;;19.80;;
13238;SDS011;6686;51.292;4.166;2023-06-22T15:56:43;24.03;;;21.43;;
13238;SDS011;6686;51.292;4.166;2023-06-22T15:59:29;22.07;;;19.90;;
13238;SDS011;6686;51.292;4.166;2023-06-22T16:02:15;25.23;;;22.62;;
13238;SDS011;6686;51.292;4.166;2023-06-22T16:05:01;23.57;;;21.10;;
13238;SDS011;6686;51.292;4.166;2023-06-22T16:07:47;22.63;;;20.27;;
13238;SDS011;6686;51.292;4.166;2023-06-22T16:10:33;20.70;;;18.70;;
13238;SDS011;6686;51.292;4.166;2023-06-22T16:13:19;21.10;;;18.73;;
13238;SDS011;6686;51.292;4.166;2023-06-22T16:16:05;19.27;;;17.43;;
13238;SDS011;6686;51.292;4.166;2023-06-22T16:18:51;21.50;;;19.40;;
13238;SDS011;6686;51.292;4.166;2023-06-22T16:21:37;19.83;;;17.83;;
13238;SDS011;6686;51.292;4.166;2023-06-22T16:24:26;19.90;;;17.93;;
13238;SDS011;6686;51.292;4.166;2023-06-22T16:27:12;20.57;;;17.43;;
13238;SDS011;6686;51.292;4.166;2023-06-22T16:29:58;19.98;;;18.20;;
13238;SDS011;6686;51.292;4.166;2023-06-22T16:35:40;18.33;;;16.52;;
13238;SDS011;6686;51.292;4.166;2023-06-22T16:38:26;17.37;;;15.63;;
13238;SDS011;6686;51.292;4.166;2023-06-22T16:41:12;16.63;;;14.83;;
13238;SDS011;6686;51.292;4.166;2023-06-22T16:43:58;16.43;;;14.80;;
13238;SDS011;6686;51.292;4.166;2023-06-22T16:46:44;17.30;;;15.60;;